sensor_id;sensor_type;location;lat;lon;timestamp;P1;durP1;ratioP1;P2;durP2;ratioP2
16669;SDS011;8448;52.034;5.158;2024-02-04T00:00:35;40.27;;;16.13;;
16669;SDS011;8448;52.034;5.158;2024-02-04T00:03:03;38.60;;;16.33;;
16669;SDS011;8448;52.034;5.158;2024-02-04T00:05:31;37.73;;;14.87;;
16669;SDS011;8448;52.034;5.158;2024-02-04T00:07:59;32.37;;;16.10;;
16669;SDS011;8448;52.034;5.158;2024-02-04T00:10:27;40.83;;;16.60;;
16669;SDS011;8448;52.034;5.158;2024-02-04T00:12:54;34.23;;;16.47;;
16669;SDS011;8448;52.034;5.158;2024-02-04T00:15:22;37.97;;;16.57;;
16669;SDS011;8448;52.034;5.158;2024-02-04T00:17:49;38.27;;;16.33;;
16669;SDS011;8448;52.034;5.158;2024-02-04T00:20:16;38.40;;;17.03;;
16669;SDS011;8448;52.034;5.158;2024-02-04T00:22:45;35.77;;;15.70;;
16669;SDS011;8448;52.034;5.158;2024-02-04T00:25:12;36.03;;;16.37;;
16669;SDS011;8448;52.034;5.158;2024-02-04T00:27:44;33.13;;;16.47;;
16669;SDS011;8448;52.034;5.158;2024-02-04T00:30:11;34.67;;;17.90;;
16669;SDS011;8448;52.034;5.158;2024-02-04T00:32:39;34.43;;;15.40;;
16669;SDS011;8448;52.034;5.158;2024-02-04T00:35:06;29.77;;;14.40;;
16669;SDS011;8448;52.034;5.158;2024-02-04T00:37:34;32.70;;;14.47;;
16669;SDS011;8448;52.034;5.158;2024-02-04T00:40:02;28.10;;;13.20;;
16669;SDS011;8448;52.034;5.158;2024-02-04T00:42:30;28.97;;;12.97;;
16669;SDS011;8448;52.034;5.158;2024-02-04T00:44:58;29.50;;;12.63;;
16669;SDS011;8448;52.034;5.158;2024-02-04T00:47:25;27.57;;;12.90;;
16669;SDS011;8448;52.034;5.158;2024-02-04T00:49:52;31.27;;;12.67;;
16669;SDS011;8448;52.034;5.158;2024-02-04T00:52:20;25.17;;;11.43;;
16669;SDS011;8448;52.034;5.158;2024-02-04T00:54:47;23.70;;;11.70;;
16669;SDS011;8448;52.034;5.158;2024-02-04T00:57:16;23.97;;;11.80;;
16669;SDS011;8448;52.034;5.158;2024-02-04T00:59:43;22.87;;;11.37;;
16669;SDS011;8448;52.034;5.158;2024-02-04T01:02:10;27.90;;;11.50;;
16669;SDS011;8448;52.034;5.158;2024-02-04T01:04:38;22.83;;;11.37;;
16669;SDS011;8448;52.034;5.158;2024-02-04T01:07:06;26.57;;;12.20;;
16669;SDS011;8448;52.034;5.158;2024-02-04T01:09:33;28.63;;;11.60;;
16669;SDS011;8448;52.034;5.158;2024-02-04T01:12:01;24.80;;;12.40;;
16669;SDS011;8448;52.034;5.158;2024-02-04T01:14:30;28.00;;;12.77;;
16669;SDS011;8448;52.034;5.158;2024-02-04T01:16:58;25.23;;;11.90;;
16669;SDS011;8448;52.034;5.158;2024-02-04T01:19:25;25.97;;;12.33;;
16669;SDS011;8448;52.034;5.158;2024-02-04T01:21:53;26.33;;;12.20;;
16669;SDS011;8448;52.034;5.158;2024-02-04T01:24:20;23.83;;;12.07;;
16669;SDS011;8448;52.034;5.158;2024-02-04T01:26:47;26.17;;;12.10;;
16669;SDS011;8448;52.034;5.158;2024-02-04T01:29:15;24.77;;;12.40;;
16669;SDS011;8448;52.034;5.158;2024-02-04T01:31:43;30.30;;;12.60;;
16669;SDS011;8448;52.034;5.158;2024-02-04T01:34:11;26.33;;;12.97;;
16669;SDS011;8448;52.034;5.158;2024-02-04T01:36:38;24.37;;;12.87;;
16669;SDS011;8448;52.034;5.158;2024-02-04T01:39:05;25.23;;;12.27;;
16669;SDS011;8448;52.034;5.158;2024-02-04T01:41:33;27.37;;;12.93;;
16669;SDS011;8448;52.034;5.158;2024-02-04T01:44:01;22.03;;;12.07;;
16669;SDS011;8448;52.034;5.158;2024-02-04T01:46:29;21.23;;;11.43;;
16669;SDS011;8448;52.034;5.158;2024-02-04T01:48:58;30.40;;;12.93;;
16669;SDS011;8448;52.034;5.158;2024-02-04T01:51:26;23.27;;;12.13;;
16669;SDS011;8448;52.034;5.158;2024-02-04T01:53:53;26.93;;;13.10;;
16669;SDS011;8448;52.034;5.158;2024-02-04T01:56:21;29.33;;;14.47;;
16669;SDS011;8448;52.034;5.158;2024-02-04T01:58:48;28.23;;;15.00;;
16669;SDS011;8448;52.034;5.158;2024-02-04T02:01:16;30.30;;;14.30;;
16669;SDS011;8448;52.034;5.158;2024-02-04T02:03:43;32.03;;;15.83;;
16669;SDS011;8448;52.034;5.158;2024-02-04T02:06:12;31.37;;;15.20;;
16669;SDS011;8448;52.034;5.158;2024-02-04T02:08:40;30.77;;;15.70;;
16669;SDS011;8448;52.034;5.158;2024-02-04T02:11:10;31.93;;;16.13;;
16669;SDS011;8448;52.034;5.158;2024-02-04T02:13:39;27.13;;;14.47;;
16669;SDS011;8448;52.034;5.158;2024-02-04T02:16:09;25.07;;;13.90;;
16669;SDS011;8448;52.034;5.158;2024-02-04T02:18:42;29.10;;;14.57;;
16669;SDS011;8448;52.034;5.158;2024-02-04T02:21:16;30.20;;;13.43;;
16669;SDS011;8448;52.034;5.158;2024-02-04T02:23:52;22.10;;;13.40;;
16669;SDS011;8448;52.034;5.158;2024-02-04T02:26:26;24.27;;;13.40;;
16669;SDS011;8448;52.034;5.158;2024-02-04T02:28:54;25.17;;;12.97;;
16669;SDS011;8448;52.034;5.158;2024-02-04T02:31:21;24.97;;;12.97;;
16669;SDS011;8448;52.034;5.158;2024-02-04T02:33:49;28.13;;;12.80;;
16669;SDS011;8448;52.034;5.158;2024-02-04T02:36:17;26.73;;;12.30;;
16669;SDS011;8448;52.034;5.158;2024-02-04T02:38:49;29.17;;;12.70;;
16669;SDS011;8448;52.034;5.158;2024-02-04T02:41:23;24.37;;;12.30;;
16669;SDS011;8448;52.034;5.158;2024-02-04T02:43:52;21.27;;;11.47;;
16669;SDS011;8448;52.034;5.158;2024-02-04T02:46:19;30.27;;;13.00;;
16669;SDS011;8448;52.034;5.158;2024-02-04T02:48:47;19.10;;;11.90;;
16669;SDS011;8448;52.034;5.158;2024-02-04T02:51:15;24.90;;;12.07;;
16669;SDS011;8448;52.034;5.158;2024-02-04T02:53:43;24.10;;;11.70;;
16669;SDS011;8448;52.034;5.158;2024-02-04T02:56:10;20.37;;;10.80;;
16669;SDS011;8448;52.034;5.158;2024-02-04T02:58:37;24.00;;;10.77;;
16669;SDS011;8448;52.034;5.158;2024-02-04T03:01:06;23.93;;;10.73;;
16669;SDS011;8448;52.034;5.158;2024-02-04T03:03:33;23.13;;;11.07;;
16669;SDS011;8448;52.034;5.158;2024-02-04T03:06:01;22.03;;;10.53;;
16669;SDS011;8448;52.034;5.158;2024-02-04T03:08:28;23.27;;;10.60;;
16669;SDS011;8448;52.034;5.158;2024-02-04T03:10:56;24.90;;;10.93;;
16669;SDS011;8448;52.034;5.158;2024-02-04T03:13:23;22.13;;;10.13;;
16669;SDS011;8448;52.034;5.158;2024-02-04T03:15:50;22.37;;;9.73;;
16669;SDS011;8448;52.034;5.158;2024-02-04T03:18:19;22.70;;;9.43;;
16669;SDS011;8448;52.034;5.158;2024-02-04T03:20:46;21.80;;;9.70;;
16669;SDS011;8448;52.034;5.158;2024-02-04T03:23:14;24.13;;;9.17;;
16669;SDS011;8448;52.034;5.158;2024-02-04T03:25:41;18.63;;;8.93;;
16669;SDS011;8448;52.034;5.158;2024-02-04T03:28:09;19.17;;;8.83;;
16669;SDS011;8448;52.034;5.158;2024-02-04T03:30:36;21.87;;;8.77;;
16669;SDS011;8448;52.034;5.158;2024-02-04T03:33:03;22.10;;;8.37;;
16669;SDS011;8448;52.034;5.158;2024-02-04T03:35:32;19.57;;;8.63;;
16669;SDS011;8448;52.034;5.158;2024-02-04T03:38:02;26.50;;;9.17;;
16669;SDS011;8448;52.034;5.158;2024-02-04T03:40:29;19.20;;;9.13;;
16669;SDS011;8448;52.034;5.158;2024-02-04T03:42:57;22.23;;;8.10;;
16669;SDS011;8448;52.034;5.158;2024-02-04T03:45:24;21.57;;;8.33;;
16669;SDS011;8448;52.034;5.158;2024-02-04T03:47:51;22.07;;;8.57;;
16669;SDS011;8448;52.034;5.158;2024-02-04T03:50:19;16.43;;;8.37;;
16669;SDS011;8448;52.034;5.158;2024-02-04T03:52:47;18.50;;;8.10;;
16669;SDS011;8448;52.034;5.158;2024-02-04T03:55:15;20.67;;;8.13;;
16669;SDS011;8448;52.034;5.158;2024-02-04T03:57:43;15.60;;;6.87;;
16669;SDS011;8448;52.034;5.158;2024-02-04T04:00:10;20.70;;;7.27;;
16669;SDS011;8448;52.034;5.158;2024-02-04T04:02:38;15.47;;;6.53;;
16669;SDS011;8448;52.034;5.158;2024-02-04T04:05:06;17.13;;;7.00;;
16669;SDS011;8448;52.034;5.158;2024-02-04T04:07:36;15.50;;;6.50;;
16669;SDS011;8448;52.034;5.158;2024-02-04T04:10:06;18.00;;;7.20;;
16669;SDS011;8448;52.034;5.158;2024-02-04T04:12:33;19.43;;;6.87;;
16669;SDS011;8448;52.034;5.158;2024-02-04T04:15:01;20.23;;;6.97;;
16669;SDS011;8448;52.034;5.158;2024-02-04T04:17:28;17.40;;;6.57;;
16669;SDS011;8448;52.034;5.158;2024-02-04T04:19:55;12.07;;;6.47;;
16669;SDS011;8448;52.034;5.158;2024-02-04T04:22:23;13.90;;;6.50;;
16669;SDS011;8448;52.034;5.158;2024-02-04T04:24:50;15.53;;;6.60;;
16669;SDS011;8448;52.034;5.158;2024-02-04T04:27:19;18.07;;;7.17;;
16669;SDS011;8448;52.034;5.158;2024-02-04T04:29:46;14.80;;;6.53;;
16669;SDS011;8448;52.034;5.158;2024-02-04T04:32:13;16.53;;;7.27;;
16669;SDS011;8448;52.034;5.158;2024-02-04T04:34:41;19.50;;;7.20;;
16669;SDS011;8448;52.034;5.158;2024-02-04T04:37:08;21.53;;;7.70;;
16669;SDS011;8448;52.034;5.158;2024-02-04T04:39:35;21.13;;;8.33;;
16669;SDS011;8448;52.034;5.158;2024-02-04T04:42:03;18.47;;;7.73;;
16669;SDS011;8448;52.034;5.158;2024-02-04T04:44:32;17.07;;;8.47;;
16669;SDS011;8448;52.034;5.158;2024-02-04T04:46:59;21.13;;;9.07;;
16669;SDS011;8448;52.034;5.158;2024-02-04T04:49:26;18.60;;;8.57;;
16669;SDS011;8448;52.034;5.158;2024-02-04T04:51:54;19.47;;;8.67;;
16669;SDS011;8448;52.034;5.158;2024-02-04T04:54:21;21.03;;;10.07;;
16669;SDS011;8448;52.034;5.158;2024-02-04T04:56:48;22.50;;;9.93;;
16669;SDS011;8448;52.034;5.158;2024-02-04T04:59:16;22.50;;;11.20;;
16669;SDS011;8448;52.034;5.158;2024-02-04T05:01:48;22.93;;;10.57;;
16669;SDS011;8448;52.034;5.158;2024-02-04T05:04:16;22.00;;;10.77;;
16669;SDS011;8448;52.034;5.158;2024-02-04T05:06:43;27.50;;;11.00;;
16669;SDS011;8448;52.034;5.158;2024-02-04T05:09:11;22.83;;;10.03;;
16669;SDS011;8448;52.034;5.158;2024-02-04T05:11:38;18.87;;;9.87;;
16669;SDS011;8448;52.034;5.158;2024-02-04T05:14:06;19.53;;;9.83;;
16669;SDS011;8448;52.034;5.158;2024-02-04T05:16:32;19.37;;;9.93;;
16669;SDS011;8448;52.034;5.158;2024-02-04T05:19:02;24.60;;;10.70;;
16669;SDS011;8448;52.034;5.158;2024-02-04T05:21:29;21.67;;;11.13;;
16669;SDS011;8448;52.034;5.158;2024-02-04T05:23:56;27.87;;;11.83;;
16669;SDS011;8448;52.034;5.158;2024-02-04T05:26:24;31.73;;;12.83;;
16669;SDS011;8448;52.034;5.158;2024-02-04T05:28:51;25.00;;;12.77;;
16669;SDS011;8448;52.034;5.158;2024-02-04T05:31:19;25.63;;;13.13;;
16669;SDS011;8448;52.034;5.158;2024-02-04T05:33:46;27.83;;;14.77;;
16669;SDS011;8448;52.034;5.158;2024-02-04T05:36:15;27.93;;;14.87;;
16669;SDS011;8448;52.034;5.158;2024-02-04T05:38:43;40.87;;;16.77;;
16669;SDS011;8448;52.034;5.158;2024-02-04T05:41:11;43.83;;;18.70;;
16669;SDS011;8448;52.034;5.158;2024-02-04T05:43:38;38.17;;;18.87;;
16669;SDS011;8448;52.034;5.158;2024-02-04T05:46:06;35.67;;;18.97;;
16669;SDS011;8448;52.034;5.158;2024-02-04T05:48:33;36.20;;;17.77;;
16669;SDS011;8448;52.034;5.158;2024-02-04T05:51:00;32.43;;;16.67;;
16669;SDS011;8448;52.034;5.158;2024-02-04T05:53:29;32.43;;;17.67;;
16669;SDS011;8448;52.034;5.158;2024-02-04T05:55:56;35.10;;;18.23;;
16669;SDS011;8448;52.034;5.158;2024-02-04T05:58:24;36.67;;;19.33;;
16669;SDS011;8448;52.034;5.158;2024-02-04T06:00:51;39.03;;;18.83;;
16669;SDS011;8448;52.034;5.158;2024-02-04T06:03:18;35.53;;;19.40;;
16669;SDS011;8448;52.034;5.158;2024-02-04T06:05:46;34.50;;;19.07;;
16669;SDS011;8448;52.034;5.158;2024-02-04T06:08:13;33.83;;;19.30;;
16669;SDS011;8448;52.034;5.158;2024-02-04T06:10:42;32.53;;;19.30;;
16669;SDS011;8448;52.034;5.158;2024-02-04T06:13:09;34.17;;;20.20;;
16669;SDS011;8448;52.034;5.158;2024-02-04T06:15:36;34.10;;;20.90;;
16669;SDS011;8448;52.034;5.158;2024-02-04T06:18:04;38.63;;;20.40;;
16669;SDS011;8448;52.034;5.158;2024-02-04T06:20:31;36.03;;;19.60;;
16669;SDS011;8448;52.034;5.158;2024-02-04T06:22:58;35.80;;;19.23;;
16669;SDS011;8448;52.034;5.158;2024-02-04T06:25:26;34.67;;;19.70;;
16669;SDS011;8448;52.034;5.158;2024-02-04T06:27:54;33.97;;;18.83;;
16669;SDS011;8448;52.034;5.158;2024-02-04T06:30:21;33.83;;;19.23;;
16669;SDS011;8448;52.034;5.158;2024-02-04T06:32:48;32.80;;;18.43;;
16669;SDS011;8448;52.034;5.158;2024-02-04T06:35:16;35.40;;;19.20;;
16669;SDS011;8448;52.034;5.158;2024-02-04T06:37:43;34.53;;;17.40;;
16669;SDS011;8448;52.034;5.158;2024-02-04T06:40:11;32.80;;;16.83;;
16669;SDS011;8448;52.034;5.158;2024-02-04T06:42:38;26.07;;;14.70;;
16669;SDS011;8448;52.034;5.158;2024-02-04T06:45:07;28.13;;;14.80;;
16669;SDS011;8448;52.034;5.158;2024-02-04T06:47:35;24.73;;;13.03;;
16669;SDS011;8448;52.034;5.158;2024-02-04T06:50:03;26.80;;;13.27;;
16669;SDS011;8448;52.034;5.158;2024-02-04T06:52:31;23.93;;;12.77;;
16669;SDS011;8448;52.034;5.158;2024-02-04T06:54:58;26.17;;;12.00;;
16669;SDS011;8448;52.034;5.158;2024-02-04T06:57:26;24.77;;;11.70;;
16669;SDS011;8448;52.034;5.158;2024-02-04T06:59:53;20.87;;;11.73;;
16669;SDS011;8448;52.034;5.158;2024-02-04T07:02:22;22.07;;;10.37;;
16669;SDS011;8448;52.034;5.158;2024-02-04T07:04:49;20.67;;;10.90;;
16669;SDS011;8448;52.034;5.158;2024-02-04T07:07:16;20.23;;;10.20;;
16669;SDS011;8448;52.034;5.158;2024-02-04T07:09:44;20.30;;;10.67;;
16669;SDS011;8448;52.034;5.158;2024-02-04T07:12:11;21.83;;;10.80;;
16669;SDS011;8448;52.034;5.158;2024-02-04T07:14:38;16.83;;;10.20;;
16669;SDS011;8448;52.034;5.158;2024-02-04T07:17:05;20.90;;;10.57;;
16669;SDS011;8448;52.034;5.158;2024-02-04T07:19:34;20.03;;;9.73;;
16669;SDS011;8448;52.034;5.158;2024-02-04T07:22:01;16.97;;;9.80;;
16669;SDS011;8448;52.034;5.158;2024-02-04T07:24:29;17.80;;;9.63;;
16669;SDS011;8448;52.034;5.158;2024-02-04T07:26:57;24.30;;;10.30;;
16669;SDS011;8448;52.034;5.158;2024-02-04T07:29:24;16.90;;;10.30;;
16669;SDS011;8448;52.034;5.158;2024-02-04T07:31:51;16.57;;;9.77;;
16669;SDS011;8448;52.034;5.158;2024-02-04T07:34:19;17.97;;;9.80;;
16669;SDS011;8448;52.034;5.158;2024-02-04T07:36:47;18.60;;;9.03;;
16669;SDS011;8448;52.034;5.158;2024-02-04T07:39:17;20.83;;;9.30;;
16669;SDS011;8448;52.034;5.158;2024-02-04T07:41:45;16.77;;;8.40;;
16669;SDS011;8448;52.034;5.158;2024-02-04T07:44:12;18.37;;;8.03;;
16669;SDS011;8448;52.034;5.158;2024-02-04T07:46:39;12.70;;;7.13;;
16669;SDS011;8448;52.034;5.158;2024-02-04T07:49:07;14.27;;;7.47;;
16669;SDS011;8448;52.034;5.158;2024-02-04T07:51:34;12.30;;;6.10;;
16669;SDS011;8448;52.034;5.158;2024-02-04T07:54:04;12.90;;;6.43;;
16669;SDS011;8448;52.034;5.158;2024-02-04T07:56:31;13.37;;;6.20;;
16669;SDS011;8448;52.034;5.158;2024-02-04T07:58:58;12.87;;;6.43;;
16669;SDS011;8448;52.034;5.158;2024-02-04T08:01:26;11.00;;;6.17;;
16669;SDS011;8448;52.034;5.158;2024-02-04T08:03:53;13.33;;;6.97;;
16669;SDS011;8448;52.034;5.158;2024-02-04T08:06:21;12.83;;;6.60;;
16669;SDS011;8448;52.034;5.158;2024-02-04T08:08:48;12.50;;;6.23;;
16669;SDS011;8448;52.034;5.158;2024-02-04T08:11:17;12.63;;;6.70;;
16669;SDS011;8448;52.034;5.158;2024-02-04T08:13:44;12.47;;;6.13;;
16669;SDS011;8448;52.034;5.158;2024-02-04T08:16:12;10.83;;;5.63;;
16669;SDS011;8448;52.034;5.158;2024-02-04T08:18:39;10.90;;;5.83;;
16669;SDS011;8448;52.034;5.158;2024-02-04T08:21:06;14.97;;;8.07;;
16669;SDS011;8448;52.034;5.158;2024-02-04T08:23:34;20.80;;;8.07;;
16669;SDS011;8448;52.034;5.158;2024-02-04T08:26:01;15.07;;;8.27;;
16669;SDS011;8448;52.034;5.158;2024-02-04T08:28:30;17.33;;;8.37;;
16669;SDS011;8448;52.034;5.158;2024-02-04T08:30:57;19.17;;;9.13;;
16669;SDS011;8448;52.034;5.158;2024-02-04T08:33:24;14.70;;;9.40;;
16669;SDS011;8448;52.034;5.158;2024-02-04T08:35:52;19.63;;;9.77;;
16669;SDS011;8448;52.034;5.158;2024-02-04T08:38:19;18.10;;;9.60;;
16669;SDS011;8448;52.034;5.158;2024-02-04T08:40:46;17.33;;;9.03;;
16669;SDS011;8448;52.034;5.158;2024-02-04T08:43:14;17.67;;;9.37;;
16669;SDS011;8448;52.034;5.158;2024-02-04T08:45:42;15.83;;;8.60;;
16669;SDS011;8448;52.034;5.158;2024-02-04T08:48:10;17.97;;;8.33;;
16669;SDS011;8448;52.034;5.158;2024-02-04T08:50:37;14.47;;;7.33;;
16669;SDS011;8448;52.034;5.158;2024-02-04T08:53:04;12.70;;;6.83;;
16669;SDS011;8448;52.034;5.158;2024-02-04T08:55:32;9.70;;;5.80;;
16669;SDS011;8448;52.034;5.158;2024-02-04T08:58:02;12.80;;;6.03;;
16669;SDS011;8448;52.034;5.158;2024-02-04T09:00:30;10.03;;;5.60;;
16669;SDS011;8448;52.034;5.158;2024-02-04T09:02:59;12.37;;;5.63;;
16669;SDS011;8448;52.034;5.158;2024-02-04T09:05:26;12.13;;;4.97;;
16669;SDS011;8448;52.034;5.158;2024-02-04T09:07:53;11.57;;;5.13;;
16669;SDS011;8448;52.034;5.158;2024-02-04T09:10:21;8.40;;;4.80;;
16669;SDS011;8448;52.034;5.158;2024-02-04T09:12:48;11.37;;;4.87;;
16669;SDS011;8448;52.034;5.158;2024-02-04T09:15:15;9.40;;;4.63;;
16669;SDS011;8448;52.034;5.158;2024-02-04T09:17:43;6.30;;;3.73;;
16669;SDS011;8448;52.034;5.158;2024-02-04T09:20:12;7.47;;;3.83;;
16669;SDS011;8448;52.034;5.158;2024-02-04T09:22:40;9.90;;;3.93;;
16669;SDS011;8448;52.034;5.158;2024-02-04T09:25:08;9.43;;;3.20;;
16669;SDS011;8448;52.034;5.158;2024-02-04T09:27:35;7.77;;;3.70;;
16669;SDS011;8448;52.034;5.158;2024-02-04T09:30:03;6.43;;;2.97;;
16669;SDS011;8448;52.034;5.158;2024-02-04T09:32:31;5.70;;;3.13;;
16669;SDS011;8448;52.034;5.158;2024-02-04T09:34:59;7.93;;;3.07;;
16669;SDS011;8448;52.034;5.158;2024-02-04T09:37:28;6.37;;;3.20;;
16669;SDS011;8448;52.034;5.158;2024-02-04T09:39:55;7.17;;;2.67;;
16669;SDS011;8448;52.034;5.158;2024-02-04T09:42:23;5.27;;;2.40;;
16669;SDS011;8448;52.034;5.158;2024-02-04T09:44:50;7.33;;;2.60;;
16669;SDS011;8448;52.034;5.158;2024-02-04T09:47:17;5.97;;;2.43;;
16669;SDS011;8448;52.034;5.158;2024-02-04T09:49:45;5.97;;;2.30;;
16669;SDS011;8448;52.034;5.158;2024-02-04T09:52:13;5.87;;;2.40;;
16669;SDS011;8448;52.034;5.158;2024-02-04T09:54:44;4.77;;;2.30;;
16669;SDS011;8448;52.034;5.158;2024-02-04T09:57:17;4.73;;;1.90;;
16669;SDS011;8448;52.034;5.158;2024-02-04T09:59:44;4.90;;;2.20;;
16669;SDS011;8448;52.034;5.158;2024-02-04T10:02:12;4.53;;;2.20;;
16669;SDS011;8448;52.034;5.158;2024-02-04T10:04:40;7.10;;;1.97;;
16669;SDS011;8448;52.034;5.158;2024-02-04T10:07:07;4.70;;;1.70;;
16669;SDS011;8448;52.034;5.158;2024-02-04T10:09:35;5.70;;;2.03;;
16669;SDS011;8448;52.034;5.158;2024-02-04T10:12:04;5.87;;;2.13;;
16669;SDS011;8448;52.034;5.158;2024-02-04T10:14:33;5.77;;;2.03;;
16669;SDS011;8448;52.034;5.158;2024-02-04T10:17:01;5.67;;;2.20;;
16669;SDS011;8448;52.034;5.158;2024-02-04T10:19:28;5.20;;;2.10;;
16669;SDS011;8448;52.034;5.158;2024-02-04T10:21:59;5.43;;;1.60;;
16669;SDS011;8448;52.034;5.158;2024-02-04T10:24:27;3.33;;;1.60;;
16669;SDS011;8448;52.034;5.158;2024-02-04T10:26:54;4.67;;;1.70;;
16669;SDS011;8448;52.034;5.158;2024-02-04T10:29:23;3.53;;;1.50;;
16669;SDS011;8448;52.034;5.158;2024-02-04T10:31:52;5.03;;;1.90;;
16669;SDS011;8448;52.034;5.158;2024-02-04T10:34:22;2.20;;;1.27;;
16669;SDS011;8448;52.034;5.158;2024-02-04T10:36:50;2.93;;;1.10;;
16669;SDS011;8448;52.034;5.158;2024-02-04T10:39:17;1.70;;;1.30;;
16669;SDS011;8448;52.034;5.158;2024-02-04T10:41:48;1.83;;;1.30;;
16669;SDS011;8448;52.034;5.158;2024-02-04T10:44:18;3.60;;;1.80;;
16669;SDS011;8448;52.034;5.158;2024-02-04T10:46:48;3.70;;;3.07;;
16669;SDS011;8448;52.034;5.158;2024-02-04T10:49:17;3.77;;;3.33;;
16669;SDS011;8448;52.034;5.158;2024-02-04T10:51:46;5.77;;;4.00;;
16669;SDS011;8448;52.034;5.158;2024-02-04T10:54:14;6.60;;;4.87;;
16669;SDS011;8448;52.034;5.158;2024-02-04T10:56:44;7.83;;;5.60;;
16669;SDS011;8448;52.034;5.158;2024-02-04T10:59:13;8.60;;;5.67;;
16669;SDS011;8448;52.034;5.158;2024-02-04T11:01:43;8.03;;;5.67;;
16669;SDS011;8448;52.034;5.158;2024-02-04T11:04:14;9.80;;;5.73;;
16669;SDS011;8448;52.034;5.158;2024-02-04T11:06:43;7.80;;;5.73;;
16669;SDS011;8448;52.034;5.158;2024-02-04T11:09:11;6.77;;;5.30;;
16669;SDS011;8448;52.034;5.158;2024-02-04T11:11:40;9.20;;;5.27;;
16669;SDS011;8448;52.034;5.158;2024-02-04T11:14:10;9.47;;;5.70;;
16669;SDS011;8448;52.034;5.158;2024-02-04T11:16:46;11.17;;;6.00;;
16669;SDS011;8448;52.034;5.158;2024-02-04T11:19:35;12.60;;;5.77;;
16669;SDS011;8448;52.034;5.158;2024-02-04T11:22:16;14.33;;;6.20;;
16669;SDS011;8448;52.034;5.158;2024-02-04T11:24:54;10.67;;;5.57;;
16669;SDS011;8448;52.034;5.158;2024-02-04T11:27:30;9.47;;;5.70;;
16669;SDS011;8448;52.034;5.158;2024-02-04T11:29:57;11.00;;;5.30;;
16669;SDS011;8448;52.034;5.158;2024-02-04T11:32:26;12.80;;;5.60;;
16669;SDS011;8448;52.034;5.158;2024-02-04T11:34:55;9.47;;;5.77;;
16669;SDS011;8448;52.034;5.158;2024-02-04T11:37:26;9.20;;;5.30;;
16669;SDS011;8448;52.034;5.158;2024-02-04T11:39:54;11.60;;;5.17;;
16669;SDS011;8448;52.034;5.158;2024-02-04T11:42:23;9.80;;;5.20;;
16669;SDS011;8448;52.034;5.158;2024-02-04T11:45:05;11.00;;;5.10;;
16669;SDS011;8448;52.034;5.158;2024-02-04T11:47:33;12.47;;;4.87;;
16669;SDS011;8448;52.034;5.158;2024-02-04T11:50:02;11.20;;;4.90;;
16669;SDS011;8448;52.034;5.158;2024-02-04T11:52:30;6.90;;;4.50;;
16669;SDS011;8448;52.034;5.158;2024-02-04T11:54:57;11.93;;;4.57;;
16669;SDS011;8448;52.034;5.158;2024-02-04T11:57:25;10.60;;;4.00;;
16669;SDS011;8448;52.034;5.158;2024-02-04T11:59:53;10.13;;;4.13;;
16669;SDS011;8448;52.034;5.158;2024-02-04T12:02:21;12.23;;;4.37;;
16669;SDS011;8448;52.034;5.158;2024-02-04T12:04:48;9.67;;;4.40;;
16669;SDS011;8448;52.034;5.158;2024-02-04T12:07:17;11.37;;;4.67;;
16669;SDS011;8448;52.034;5.158;2024-02-04T12:09:45;13.13;;;4.40;;
16669;SDS011;8448;52.034;5.158;2024-02-04T12:12:12;11.70;;;4.00;;
16669;SDS011;8448;52.034;5.158;2024-02-04T12:14:40;11.13;;;4.70;;
16669;SDS011;8448;52.034;5.158;2024-02-04T12:17:08;8.83;;;4.10;;
16669;SDS011;8448;52.034;5.158;2024-02-04T12:19:36;7.07;;;4.00;;
16669;SDS011;8448;52.034;5.158;2024-02-04T12:22:04;8.83;;;4.10;;
16669;SDS011;8448;52.034;5.158;2024-02-04T12:24:36;9.03;;;4.20;;
16669;SDS011;8448;52.034;5.158;2024-02-04T12:27:05;10.90;;;3.93;;
16669;SDS011;8448;52.034;5.158;2024-02-04T12:29:33;8.57;;;3.30;;
16669;SDS011;8448;52.034;5.158;2024-02-04T12:32:00;9.73;;;4.00;;
16669;SDS011;8448;52.034;5.158;2024-02-04T12:34:28;8.20;;;3.97;;
16669;SDS011;8448;52.034;5.158;2024-02-04T12:36:57;8.37;;;3.97;;
16669;SDS011;8448;52.034;5.158;2024-02-04T12:39:25;7.80;;;3.53;;
16669;SDS011;8448;52.034;5.158;2024-02-04T12:41:54;7.67;;;3.33;;
16669;SDS011;8448;52.034;5.158;2024-02-04T12:44:21;8.63;;;3.37;;
16669;SDS011;8448;52.034;5.158;2024-02-04T12:46:52;8.03;;;3.47;;
16669;SDS011;8448;52.034;5.158;2024-02-04T12:49:20;6.17;;;2.70;;
16669;SDS011;8448;52.034;5.158;2024-02-04T12:51:48;8.60;;;2.80;;
16669;SDS011;8448;52.034;5.158;2024-02-04T12:54:17;8.97;;;3.47;;
16669;SDS011;8448;52.034;5.158;2024-02-04T12:56:45;8.00;;;3.93;;
16669;SDS011;8448;52.034;5.158;2024-02-04T12:59:25;12.33;;;4.17;;
16669;SDS011;8448;52.034;5.158;2024-02-04T13:01:54;12.10;;;5.10;;
16669;SDS011;8448;52.034;5.158;2024-02-04T13:04:22;10.73;;;5.03;;
16669;SDS011;8448;52.034;5.158;2024-02-04T13:06:50;11.23;;;5.27;;
16669;SDS011;8448;52.034;5.158;2024-02-04T13:09:17;12.57;;;5.10;;
16669;SDS011;8448;52.034;5.158;2024-02-04T13:11:45;12.50;;;4.97;;
16669;SDS011;8448;52.034;5.158;2024-02-04T13:14:12;11.33;;;4.73;;
16669;SDS011;8448;52.034;5.158;2024-02-04T13:16:41;16.80;;;5.40;;
16669;SDS011;8448;52.034;5.158;2024-02-04T13:19:08;11.37;;;5.43;;
16669;SDS011;8448;52.034;5.158;2024-02-04T13:21:36;13.83;;;4.93;;
16669;SDS011;8448;52.034;5.158;2024-02-04T13:24:03;10.30;;;4.67;;
16669;SDS011;8448;52.034;5.158;2024-02-04T13:26:31;11.23;;;5.23;;
16669;SDS011;8448;52.034;5.158;2024-02-04T13:28:58;11.23;;;4.80;;
16669;SDS011;8448;52.034;5.158;2024-02-04T13:31:26;13.00;;;4.90;;
16669;SDS011;8448;52.034;5.158;2024-02-04T13:33:55;8.93;;;4.87;;
16669;SDS011;8448;52.034;5.158;2024-02-04T13:36:22;9.83;;;3.87;;
16669;SDS011;8448;52.034;5.158;2024-02-04T13:38:50;11.53;;;4.50;;
16669;SDS011;8448;52.034;5.158;2024-02-04T13:41:17;8.10;;;3.93;;
16669;SDS011;8448;52.034;5.158;2024-02-04T13:43:45;11.87;;;4.40;;
16669;SDS011;8448;52.034;5.158;2024-02-04T13:46:12;10.90;;;4.27;;
16669;SDS011;8448;52.034;5.158;2024-02-04T13:48:39;9.90;;;4.40;;
16669;SDS011;8448;52.034;5.158;2024-02-04T13:51:08;10.53;;;4.50;;
16669;SDS011;8448;52.034;5.158;2024-02-04T13:53:35;10.37;;;4.50;;
16669;SDS011;8448;52.034;5.158;2024-02-04T13:56:03;10.57;;;3.87;;
16669;SDS011;8448;52.034;5.158;2024-02-04T13:58:30;10.30;;;4.33;;
16669;SDS011;8448;52.034;5.158;2024-02-04T14:00:58;9.63;;;3.57;;
16669;SDS011;8448;52.034;5.158;2024-02-04T14:03:25;11.67;;;3.87;;
16669;SDS011;8448;52.034;5.158;2024-02-04T14:05:52;7.43;;;3.27;;
16669;SDS011;8448;52.034;5.158;2024-02-04T14:08:22;10.07;;;3.50;;
16669;SDS011;8448;52.034;5.158;2024-02-04T14:10:49;7.17;;;2.57;;
16669;SDS011;8448;52.034;5.158;2024-02-04T14:13:17;8.20;;;3.30;;
16669;SDS011;8448;52.034;5.158;2024-02-04T14:15:44;11.73;;;3.00;;
16669;SDS011;8448;52.034;5.158;2024-02-04T14:18:12;11.70;;;3.23;;
16669;SDS011;8448;52.034;5.158;2024-02-04T14:20:39;10.70;;;3.03;;
16669;SDS011;8448;52.034;5.158;2024-02-04T14:23:06;11.20;;;2.90;;
16669;SDS011;8448;52.034;5.158;2024-02-04T14:25:35;9.87;;;3.00;;
16669;SDS011;8448;52.034;5.158;2024-02-04T14:28:02;6.50;;;2.40;;
16669;SDS011;8448;52.034;5.158;2024-02-04T14:30:30;9.77;;;3.07;;
16669;SDS011;8448;52.034;5.158;2024-02-04T14:32:57;11.50;;;2.90;;
16669;SDS011;8448;52.034;5.158;2024-02-04T14:35:25;13.10;;;2.90;;
16669;SDS011;8448;52.034;5.158;2024-02-04T14:37:52;11.60;;;2.87;;
16669;SDS011;8448;52.034;5.158;2024-02-04T14:40:20;8.53;;;2.73;;
16669;SDS011;8448;52.034;5.158;2024-02-04T14:42:48;7.50;;;2.50;;
16669;SDS011;8448;52.034;5.158;2024-02-04T14:45:16;9.30;;;3.10;;
16669;SDS011;8448;52.034;5.158;2024-02-04T14:47:44;14.77;;;3.50;;
16669;SDS011;8448;52.034;5.158;2024-02-04T14:50:11;10.83;;;3.73;;